sensor_id;sensor_type;location;lat;lon;timestamp;pressure;altitude;pressure_sealevel;temperature;humidity
40994;BME280;26722;43.212;27.932;2023-02-16T00:00:57;55282.88;;;-146.72;53.39
40994;BME280;26722;43.212;27.932;2023-02-16T00:03:22;55297.66;;;-146.72;53.45
40994;BME280;26722;43.212;27.932;2023-02-16T00:05:49;55297.66;;;-146.72;53.42
40994;BME280;26722;43.212;27.932;2023-02-16T00:08:15;55287.09;;;-146.72;53.28
40994;BME280;26722;43.212;27.932;2023-02-16T00:10:40;55304.00;;;-146.72;53.38
40994;BME280;26722;43.212;27.932;2023-02-16T00:13:26;55301.88;;;-146.72;54.12
40994;BME280;26722;43.212;27.932;2023-02-16T00:16:20;55289.22;;;-146.72;54.86
40994;BME280;26722;43.212;27.932;2023-02-16T00:18:47;55285.00;;;-146.72;55.97
40994;BME280;26722;43.212;27.932;2023-02-16T00:21:13;55316.66;;;-146.72;57.06
40994;BME280;26722;43.212;27.932;2023-02-16T00:23:39;55301.88;;;-146.72;58.03
40994;BME280;26722;43.212;27.932;2023-02-16T00:26:12;55301.88;;;-146.72;59.27
40994;BME280;26722;43.212;27.932;2023-02-16T00:28:38;55316.66;;;-146.72;60.04
40994;BME280;26722;43.212;27.932;2023-02-16T00:31:03;55314.56;;;-146.72;61.02
40994;BME280;26722;43.212;27.932;2023-02-16T00:33:29;55344.13;;;-146.72;61.48
40994;BME280;26722;43.212;27.932;2023-02-16T00:35:55;55346.22;;;-146.72;61.91
40994;BME280;26722;43.212;27.932;2023-02-16T00:38:20;55356.78;;;-146.72;61.73
40994;BME280;26722;43.212;27.932;2023-02-16T00:40:46;55346.22;;;-146.72;62.00
40994;BME280;26722;43.212;27.932;2023-02-16T00:43:23;55320.88;;;-146.72;61.70
40994;BME280;26722;43.212;27.932;2023-02-16T00:45:49;55348.34;;;-146.72;61.80
40994;BME280;26722;43.212;27.932;2023-02-16T00:48:15;55335.66;;;-146.72;61.36
40994;BME280;26722;43.212;27.932;2023-02-16T00:50:40;55327.22;;;-146.72;61.22
40994;BME280;26722;43.212;27.932;2023-02-16T00:53:05;55333.56;;;-146.72;61.26
40994;BME280;26722;43.212;27.932;2023-02-16T00:55:33;55329.34;;;-146.72;60.93
40994;BME280;26722;43.212;27.932;2023-02-16T00:58:23;55348.34;;;-146.72;60.71
40994;BME280;26722;43.212;27.932;2023-02-16T01:01:00;55333.56;;;-146.72;60.54
40994;BME280;26722;43.212;27.932;2023-02-16T01:03:28;55335.66;;;-146.72;60.20
40994;BME280;26722;43.212;27.932;2023-02-16T01:05:54;55352.56;;;-146.72;60.06
40994;BME280;26722;43.212;27.932;2023-02-16T01:08:38;55327.22;;;-146.72;59.66
40994;BME280;26722;43.212;27.932;2023-02-16T01:11:22;55331.44;;;-146.72;59.78
40994;BME280;26722;43.212;27.932;2023-02-16T01:13:49;55335.66;;;-146.72;59.83
40994;BME280;26722;43.212;27.932;2023-02-16T01:16:24;55339.91;;;-146.72;59.95
40994;BME280;26722;43.212;27.932;2023-02-16T01:18:50;55331.44;;;-146.72;59.91
40994;BME280;26722;43.212;27.932;2023-02-16T01:21:16;55323.00;;;-146.72;60.21
40994;BME280;26722;43.212;27.932;2023-02-16T01:23:41;55331.44;;;-146.72;60.80
40994;BME280;26722;43.212;27.932;2023-02-16T01:26:16;55331.44;;;-146.72;61.17
40994;BME280;26722;43.212;27.932;2023-02-16T01:28:42;55308.22;;;-146.72;61.60
40994;BME280;26722;43.212;27.932;2023-02-16T01:31:13;55339.91;;;-146.72;61.91
40994;BME280;26722;43.212;27.932;2023-02-16T01:33:40;55335.66;;;-146.72;62.18
40994;BME280;26722;43.212;27.932;2023-02-16T01:38:43;55342.00;;;-146.72;62.54
40994;BME280;26722;43.212;27.932;2023-02-16T01:44:17;55331.44;;;-146.72;62.38
40994;BME280;26722;43.212;27.932;2023-02-16T01:49:36;55352.56;;;-146.72;62.35
40994;BME280;26722;43.212;27.932;2023-02-16T01:55:01;55352.56;;;-146.72;62.76
40994;BME280;26722;43.212;27.932;2023-02-16T02:02:39;55352.56;;;-146.72;62.50
40994;BME280;26722;43.212;27.932;2023-02-16T02:16:00;55365.22;;;-146.72;62.21
40994;BME280;26722;43.212;27.932;2023-02-16T02:18:25;55331.44;;;-146.72;62.35
40994;BME280;26722;43.212;27.932;2023-02-16T02:24:09;55339.91;;;-146.72;62.95
40994;BME280;26722;43.212;27.932;2023-02-16T02:35:15;55348.34;;;-146.72;64.68
40994;BME280;26722;43.212;27.932;2023-02-16T02:37:48;55358.91;;;-146.72;64.80
40994;BME280;26722;43.212;27.932;2023-02-16T02:40:22;55339.91;;;-146.72;64.97
40994;BME280;26722;43.212;27.932;2023-02-16T02:43:10;55339.91;;;-146.72;65.26
40994;BME280;26722;43.212;27.932;2023-02-16T02:45:45;55333.56;;;-146.72;65.48
40994;BME280;26722;43.212;27.932;2023-02-16T02:48:12;55361.00;;;-146.72;65.33
40994;BME280;26722;43.212;27.932;2023-02-16T02:53:28;55361.00;;;-146.72;64.91
40994;BME280;26722;43.212;27.932;2023-02-16T02:55:54;55337.78;;;-146.72;64.24
40994;BME280;26722;43.212;27.932;2023-02-16T02:58:42;55344.13;;;-146.72;63.83
40994;BME280;26722;43.212;27.932;2023-02-16T03:01:27;55361.00;;;-146.72;63.73
40994;BME280;26722;43.212;27.932;2023-02-16T03:03:55;55335.66;;;-146.72;63.41
40994;BME280;26722;43.212;27.932;2023-02-16T03:06:27;55337.78;;;-146.72;63.07
40994;BME280;26722;43.212;27.932;2023-02-16T03:09:10;55335.66;;;-146.72;63.00
40994;BME280;26722;43.212;27.932;2023-02-16T03:11:38;55352.56;;;-146.72;62.78
40994;BME280;26722;43.212;27.932;2023-02-16T03:14:55;55337.78;;;-146.72;62.64
40994;BME280;26722;43.212;27.932;2023-02-16T03:17:30;55348.34;;;-146.72;62.81
40994;BME280;26722;43.212;27.932;2023-02-16T03:20:16;55337.78;;;-146.72;62.85
40994;BME280;26722;43.212;27.932;2023-02-16T03:23:02;55369.44;;;-146.72;62.58
40994;BME280;26722;43.212;27.932;2023-02-16T03:25:47;55358.91;;;-146.72;62.61
40994;BME280;26722;43.212;27.932;2023-02-16T03:28:33;55342.00;;;-146.72;63.04
40994;BME280;26722;43.212;27.932;2023-02-16T03:31:22;55352.56;;;-146.72;63.31
40994;BME280;26722;43.212;27.932;2023-02-16T03:33:49;55348.34;;;-146.72;63.56
40994;BME280;26722;43.212;27.932;2023-02-16T03:36:22;55361.00;;;-146.72;63.34
40994;BME280;26722;43.212;27.932;2023-02-16T03:38:50;55356.78;;;-146.72;63.32
40994;BME280;26722;43.212;27.932;2023-02-16T03:41:15;55363.13;;;-146.72;63.28
40994;BME280;26722;43.212;27.932;2023-02-16T03:43:41;55365.22;;;-146.72;63.29
40994;BME280;26722;43.212;27.932;2023-02-16T03:46:06;55352.56;;;-146.72;63.63
40994;BME280;26722;43.212;27.932;2023-02-16T03:48:32;55348.34;;;-146.72;63.81
40994;BME280;26722;43.212;27.932;2023-02-16T03:50:57;55337.78;;;-146.72;64.10
40994;BME280;26722;43.212;27.932;2023-02-16T03:53:23;55361.00;;;-146.72;64.29
40994;BME280;26722;43.212;27.932;2023-02-16T03:55:49;55339.91;;;-146.72;64.24
40994;BME280;26722;43.212;27.932;2023-02-16T03:58:18;55329.34;;;-146.72;64.29
40994;BME280;26722;43.212;27.932;2023-02-16T04:00:44;55335.66;;;-146.72;64.06
40994;BME280;26722;43.212;27.932;2023-02-16T04:03:09;55350.44;;;-146.72;63.99
40994;BME280;26722;43.212;27.932;2023-02-16T04:05:35;55361.00;;;-146.72;63.81
40994;BME280;26722;43.212;27.932;2023-02-16T04:08:01;55352.56;;;-146.72;63.73
40994;BME280;26722;43.212;27.932;2023-02-16T04:10:26;55335.66;;;-146.72;63.29
40994;BME280;26722;43.212;27.932;2023-02-16T04:12:52;55348.34;;;-146.72;63.41
40994;BME280;26722;43.212;27.932;2023-02-16T04:15:20;55335.66;;;-146.72;62.70
40994;BME280;26722;43.212;27.932;2023-02-16T04:17:47;55337.78;;;-146.72;62.15
40994;BME280;26722;43.212;27.932;2023-02-16T04:20:18;55352.56;;;-146.72;61.83
40994;BME280;26722;43.212;27.932;2023-02-16T04:22:45;55323.00;;;-146.72;61.73
40994;BME280;26722;43.212;27.932;2023-02-16T04:25:11;55331.44;;;-146.72;62.03
40994;BME280;26722;43.212;27.932;2023-02-16T04:27:37;55342.00;;;-146.72;61.64
40994;BME280;26722;43.212;27.932;2023-02-16T04:30:04;55361.00;;;-146.72;61.74
40994;BME280;26722;43.212;27.932;2023-02-16T04:32:29;55335.66;;;-146.72;62.29
40994;BME280;26722;43.212;27.932;2023-02-16T04:34:55;55339.91;;;-146.72;62.26
40994;BME280;26722;43.212;27.932;2023-02-16T04:37:20;55331.44;;;-146.72;62.53
40994;BME280;26722;43.212;27.932;2023-02-16T04:39:46;55335.66;;;-146.72;62.91
40994;BME280;26722;43.212;27.932;2023-02-16T04:42:11;55365.22;;;-146.72;63.21
40994;BME280;26722;43.212;27.932;2023-02-16T04:44:37;55342.00;;;-146.72;63.50
40994;BME280;26722;43.212;27.932;2023-02-16T04:47:03;55331.44;;;-146.72;63.50
40994;BME280;26722;43.212;27.932;2023-02-16T04:49:29;55348.34;;;-146.72;63.81
40994;BME280;26722;43.212;27.932;2023-02-16T04:51:54;55331.44;;;-146.72;63.85
40994;BME280;26722;43.212;27.932;2023-02-16T04:54:20;55335.66;;;-146.72;63.52
40994;BME280;26722;43.212;27.932;2023-02-16T04:56:45;55331.44;;;-146.72;63.94
40994;BME280;26722;43.212;27.932;2023-02-16T04:59:11;55350.44;;;-146.72;63.57
40994;BME280;26722;43.212;27.932;2023-02-16T05:01:37;55356.78;;;-146.72;63.99
40994;BME280;26722;43.212;27.932;2023-02-16T05:04:03;55323.00;;;-146.72;63.91
40994;BME280;26722;43.212;27.932;2023-02-16T05:06:29;55356.78;;;-146.72;64.09
40994;BME280;26722;43.212;27.932;2023-02-16T05:08:54;55346.22;;;-146.72;63.65
40994;BME280;26722;43.212;27.932;2023-02-16T05:11:20;55352.56;;;-146.72;63.76
40994;BME280;26722;43.212;27.932;2023-02-16T05:14:04;55358.91;;;-146.72;64.36
40994;BME280;26722;43.212;27.932;2023-02-16T05:16:47;55344.13;;;-146.72;64.40
40994;BME280;26722;43.212;27.932;2023-02-16T05:19:13;55356.78;;;-146.72;64.55
40994;BME280;26722;43.212;27.932;2023-02-16T05:21:38;55346.22;;;-146.72;64.99
40994;BME280;26722;43.212;27.932;2023-02-16T05:24:06;55358.91;;;-146.72;65.38
40994;BME280;26722;43.212;27.932;2023-02-16T05:26:34;55352.56;;;-146.72;65.22
40994;BME280;26722;43.212;27.932;2023-02-16T05:29:00;55342.00;;;-146.72;65.02
40994;BME280;26722;43.212;27.932;2023-02-16T05:31:27;55339.91;;;-146.72;65.27
40994;BME280;26722;43.212;27.932;2023-02-16T05:33:53;55335.66;;;-146.72;65.17
40994;BME280;26722;43.212;27.932;2023-02-16T05:36:19;55331.44;;;-146.72;65.37
40994;BME280;26722;43.212;27.932;2023-02-16T05:38:45;55325.13;;;-146.72;65.19
40994;BME280;26722;43.212;27.932;2023-02-16T05:41:11;55331.44;;;-146.72;64.71
40994;BME280;26722;43.212;27.932;2023-02-16T05:43:49;55346.22;;;-146.72;64.42
40994;BME280;26722;43.212;27.932;2023-02-16T05:46:14;55329.34;;;-146.72;63.83
40994;BME280;26722;43.212;27.932;2023-02-16T05:48:40;55331.44;;;-146.72;63.49
40994;BME280;26722;43.212;27.932;2023-02-16T05:51:05;55323.00;;;-146.72;62.68
40994;BME280;26722;43.212;27.932;2023-02-16T05:53:30;55323.00;;;-146.72;62.00
40994;BME280;26722;43.212;27.932;2023-02-16T05:55:56;55329.34;;;-146.72;61.58
40994;BME280;26722;43.212;27.932;2023-02-16T05:58:21;55325.13;;;-146.72;61.62
40994;BME280;26722;43.212;27.932;2023-02-16T06:00:47;55320.88;;;-146.72;61.29
40994;BME280;26722;43.212;27.932;2023-02-16T06:03:12;55335.66;;;-146.72;61.70
40994;BME280;26722;43.212;27.932;2023-02-16T06:05:38;55335.66;;;-146.72;61.92
40994;BME280;26722;43.212;27.932;2023-02-16T06:08:04;55314.56;;;-146.72;61.84
40994;BME280;26722;43.212;27.932;2023-02-16T06:10:29;55344.13;;;-146.72;61.86
40994;BME280;26722;43.212;27.932;2023-02-16T06:12:54;55310.34;;;-146.72;61.96
40994;BME280;26722;43.212;27.932;2023-02-16T06:15:20;55310.34;;;-146.72;62.06
40994;BME280;26722;43.212;27.932;2023-02-16T06:17:45;55297.66;;;-146.72;61.91
40994;BME280;26722;43.212;27.932;2023-02-16T06:20:11;55323.00;;;-146.72;61.81
40994;BME280;26722;43.212;27.932;2023-02-16T06:22:36;55301.88;;;-146.72;61.29
40994;BME280;26722;43.212;27.932;2023-02-16T06:25:02;55316.66;;;-146.72;60.95
40994;BME280;26722;43.212;27.932;2023-02-16T06:27:28;55297.66;;;-146.72;60.96
40994;BME280;26722;43.212;27.932;2023-02-16T06:29:53;55295.56;;;-146.72;60.81
40994;BME280;26722;43.212;27.932;2023-02-16T06:32:19;55337.78;;;-146.72;60.85
40994;BME280;26722;43.212;27.932;2023-02-16T06:34:45;55304.00;;;-146.72;61.41
40994;BME280;26722;43.212;27.932;2023-02-16T06:37:10;55299.78;;;-146.72;61.51
40994;BME280;26722;43.212;27.932;2023-02-16T06:39:36;55308.22;;;-146.72;61.46
40994;BME280;26722;43.212;27.932;2023-02-16T06:42:01;55312.44;;;-146.72;61.01
40994;BME280;26722;43.212;27.932;2023-02-16T06:44:27;55333.56;;;-146.72;61.21
40994;BME280;26722;43.212;27.932;2023-02-16T06:46:52;55293.44;;;-146.72;61.16
40994;BME280;26722;43.212;27.932;2023-02-16T06:49:19;55268.09;;;-146.72;60.80
40994;BME280;26722;43.212;27.932;2023-02-16T06:51:46;55304.00;;;-146.72;60.60
40994;BME280;26722;43.212;27.932;2023-02-16T06:54:11;55299.78;;;-146.72;60.60
40994;BME280;26722;43.212;27.932;2023-02-16T06:56:37;55297.66;;;-146.72;59.80
40994;BME280;26722;43.212;27.932;2023-02-16T06:59:03;55306.09;;;-146.72;59.91
40994;BME280;26722;43.212;27.932;2023-02-16T07:01:29;55299.78;;;-146.72;60.16
40994;BME280;26722;43.212;27.932;2023-02-16T07:03:56;55312.44;;;-146.72;59.74
40994;BME280;26722;43.212;27.932;2023-02-16T07:06:24;55291.34;;;-146.72;59.22
40994;BME280;26722;43.212;27.932;2023-02-16T07:08:50;55282.88;;;-146.72;59.19
40994;BME280;26722;43.212;27.932;2023-02-16T07:11:16;55289.22;;;-146.72;58.99
40994;BME280;26722;43.212;27.932;2023-02-16T07:13:42;55289.22;;;-146.72;58.82
40994;BME280;26722;43.212;27.932;2023-02-16T07:16:08;55261.78;;;-146.72;58.16
40994;BME280;26722;43.212;27.932;2023-02-16T07:18:34;55282.88;;;-146.72;58.56
40994;BME280;26722;43.212;27.932;2023-02-16T07:20:59;55306.09;;;-146.72;58.58
40994;BME280;26722;43.212;27.932;2023-02-16T07:23:25;55272.31;;;-146.72;58.37
40994;BME280;26722;43.212;27.932;2023-02-16T07:25:51;55282.88;;;-146.72;58.32
40994;BME280;26722;43.212;27.932;2023-02-16T07:28:16;55259.66;;;-146.72;58.96
40994;BME280;26722;43.212;27.932;2023-02-16T07:30:42;55272.31;;;-146.72;58.29
40994;BME280;26722;43.212;27.932;2023-02-16T07:33:08;55274.44;;;-146.72;57.91
40994;BME280;26722;43.212;27.932;2023-02-16T07:35:34;55253.31;;;-146.72;57.02
40994;BME280;26722;43.212;27.932;2023-02-16T07:38:00;55272.31;;;-146.72;56.66
40994;BME280;26722;43.212;27.932;2023-02-16T07:40:26;55276.56;;;-146.72;56.39
40994;BME280;26722;43.212;27.932;2023-02-16T07:42:51;55225.88;;;-146.72;55.63
40994;BME280;26722;43.212;27.932;2023-02-16T07:45:17;55234.31;;;-146.72;55.85
40994;BME280;26722;43.212;27.932;2023-02-16T07:47:42;55238.53;;;-146.72;54.98
40994;BME280;26722;43.212;27.932;2023-02-16T07:50:08;55244.88;;;-146.72;53.49
40994;BME280;26722;43.212;27.932;2023-02-16T07:52:34;55215.31;;;-146.72;53.36
40994;BME280;26722;43.212;27.932;2023-02-16T07:55:00;55223.78;;;-146.72;53.08
40994;BME280;26722;43.212;27.932;2023-02-16T07:57:26;55217.44;;;-146.72;52.01
40994;BME280;26722;43.212;27.932;2023-02-16T07:59:52;55213.22;;;-146.72;51.74
40994;BME280;26722;43.212;27.932;2023-02-16T08:02:19;55219.53;;;-146.72;51.68
40994;BME280;26722;43.212;27.932;2023-02-16T08:04:45;55196.31;;;-146.72;51.07
40994;BME280;26722;43.212;27.932;2023-02-16T08:07:12;55217.44;;;-146.72;50.53
40994;BME280;26722;43.212;27.932;2023-02-16T08:09:38;55217.44;;;-146.72;49.37
40994;BME280;26722;43.212;27.932;2023-02-16T08:12:07;55202.66;;;-146.72;49.52
40994;BME280;26722;43.212;27.932;2023-02-16T08:14:33;55209.00;;;-146.72;49.25
40994;BME280;26722;43.212;27.932;2023-02-16T08:16:59;55192.09;;;-146.72;48.16
40994;BME280;26722;43.212;27.932;2023-02-16T08:19:24;55209.00;;;-146.72;47.79
40994;BME280;26722;43.212;27.932;2023-02-16T08:21:50;55187.88;;;-146.72;47.62
40994;BME280;26722;43.212;27.932;2023-02-16T08:24:15;55202.66;;;-146.72;47.65
40994;BME280;26722;43.212;27.932;2023-02-16T08:26:41;55170.97;;;-146.72;47.38
40994;BME280;26722;43.212;27.932;2023-02-16T08:29:08;55200.53;;;-146.72;46.58
40994;BME280;26722;43.212;27.932;2023-02-16T08:31:39;55175.22;;;-146.72;46.51
40994;BME280;26722;43.212;27.932;2023-02-16T08:34:06;55190.00;;;-146.72;45.76
40994;BME280;26722;43.212;27.932;2023-02-16T08:36:34;55194.22;;;-146.72;45.42
40994;BME280;26722;43.212;27.932;2023-02-16T08:39:02;55190.00;;;-146.72;45.41
40994;BME280;26722;43.212;27.932;2023-02-16T08:41:30;55187.88;;;-146.72;45.52
40994;BME280;26722;43.212;27.932;2023-02-16T08:43:56;55200.53;;;-146.72;45.14
40994;BME280;26722;43.212;27.932;2023-02-16T08:46:22;55179.44;;;-146.72;45.07
40994;BME280;26722;43.212;27.932;2023-02-16T08:48:50;55183.66;;;-146.72;45.52
40994;BME280;26722;43.212;27.932;2023-02-16T08:51:18;55179.44;;;-146.72;46.00
40994;BME280;26722;43.212;27.932;2023-02-16T08:53:44;55183.66;;;-146.72;45.95
40994;BME280;26722;43.212;27.932;2023-02-16T08:56:11;55179.44;;;-146.72;45.59
40994;BME280;26722;43.212;27.932;2023-02-16T08:58:37;55179.44;;;-146.72;45.58
40994;BME280;26722;43.212;27.932;2023-02-16T09:01:04;55183.66;;;-146.72;45.34
40994;BME280;26722;43.212;27.932;2023-02-16T09:03:30;55164.66;;;-146.72;45.00
40994;BME280;26722;43.212;27.932;2023-02-16T09:05:59;55175.22;;;-146.72;45.02
40994;BME280;26722;43.212;27.932;2023-02-16T09:08:25;55179.44;;;-146.72;45.43
40994;BME280;26722;43.212;27.932;2023-02-16T09:10:50;55170.97;;;-146.72;45.67
40994;BME280;26722;43.212;27.932;2023-02-16T09:13:16;55175.22;;;-146.72;45.55
40994;BME280;26722;43.212;27.932;2023-02-16T09:15:42;55192.09;;;-146.72;45.70
40994;BME280;26722;43.212;27.932;2023-02-16T09:18:09;55192.09;;;-146.72;44.81
40994;BME280;26722;43.212;27.932;2023-02-16T09:20:39;55177.31;;;-146.72;44.84
40994;BME280;26722;43.212;27.932;2023-02-16T09:23:06;55170.97;;;-146.72;44.31
40994;BME280;26722;43.212;27.932;2023-02-16T09:25:35;55158.31;;;-146.72;42.84
40994;BME280;26722;43.212;27.932;2023-02-16T09:28:19;55160.44;;;-146.72;42.84
40994;BME280;26722;43.212;27.932;2023-02-16T09:30:45;55187.88;;;-146.72;42.53
40994;BME280;26722;43.212;27.932;2023-02-16T09:33:11;55149.88;;;-146.72;41.24
40994;BME280;26722;43.212;27.932;2023-02-16T09:35:39;55158.31;;;-146.72;40.83
40994;BME280;26722;43.212;27.932;2023-02-16T09:38:05;55145.66;;;-146.72;39.94
40994;BME280;26722;43.212;27.932;2023-02-16T09:40:32;55156.22;;;-146.72;39.67
40994;BME280;26722;43.212;27.932;2023-02-16T09:45:31;55158.31;;;-146.72;38.54
40994;BME280;26722;43.212;27.932;2023-02-16T09:48:02;55137.22;;;-146.72;38.67
40994;BME280;26722;43.212;27.932;2023-02-16T09:50:29;55137.22;;;-146.72;38.59
40994;BME280;26722;43.212;27.932;2023-02-16T09:53:05;55149.88;;;-146.72;37.73
40994;BME280;26722;43.212;27.932;2023-02-16T09:55:48;55149.88;;;-146.72;37.11
40994;BME280;26722;43.212;27.932;2023-02-16T09:58:21;55128.75;;;-146.72;36.69
40994;BME280;26722;43.212;27.932;2023-02-16T10:00:50;55141.44;;;-146.72;36.51
40994;BME280;26722;43.212;27.932;2023-02-16T10:08:46;55132.97;;;-146.72;35.77
40994;BME280;26722;43.212;27.932;2023-02-16T10:22:32;55120.31;;;-146.72;35.27
40994;BME280;26722;43.212;27.932;2023-02-16T10:25:24;55132.97;;;-146.72;35.25
40994;BME280;26722;43.212;27.932;2023-02-16T10:27:53;55122.44;;;-146.72;35.05
40994;BME280;26722;43.212;27.932;2023-02-16T10:30:22;55147.75;;;-146.72;35.06
40994;BME280;26722;43.212;27.932;2023-02-16T10:35:21;55128.75;;;-146.72;34.66
40994;BME280;26722;43.212;27.932;2023-02-16T10:43:28;55120.31;;;-146.72;35.52
40994;BME280;26722;43.212;27.932;2023-02-16T10:46:01;55101.31;;;-146.72;35.83
40994;BME280;26722;43.212;27.932;2023-02-16T10:48:27;55116.09;;;-146.72;35.10
40994;BME280;26722;43.212;27.932;2023-02-16T10:51:11;55107.66;;;-146.72;34.85
40994;BME280;26722;43.212;27.932;2023-02-16T10:53:42;55107.66;;;-146.72;35.06
40994;BME280;26722;43.212;27.932;2023-02-16T10:56:40;55111.88;;;-146.72;34.45
40994;BME280;26722;43.212;27.932;2023-02-16T10:59:20;55111.88;;;-146.72;35.09
40994;BME280;26722;43.212;27.932;2023-02-16T11:01:49;55111.88;;;-146.72;41.17
40994;BME280;26722;43.212;27.932;2023-02-16T11:04:45;55116.09;;;-146.72;47.74
40994;BME280;26722;43.212;27.932;2023-02-16T11:09:40;55126.66;;;-146.72;52.24
40994;BME280;26722;43.212;27.932;2023-02-16T11:12:26;55141.44;;;-146.72;51.41
40994;BME280;26722;43.212;27.932;2023-02-16T11:15:20;55132.97;;;-146.72;52.44
40994;BME280;26722;43.212;27.932;2023-02-16T11:17:52;55141.44;;;-146.72;53.51
40994;BME280;26722;43.212;27.932;2023-02-16T11:20:30;55156.22;;;-146.72;54.12
40994;BME280;26722;43.212;27.932;2023-02-16T11:26:28;55162.53;;;-146.72;53.20
40994;BME280;26722;43.212;27.932;2023-02-16T11:29:06;55160.44;;;-146.72;53.67
40994;BME280;26722;43.212;27.932;2023-02-16T11:31:41;55158.31;;;-146.72;53.64
40994;BME280;26722;43.212;27.932;2023-02-16T11:34:14;55156.22;;;-146.72;53.03
40994;BME280;26722;43.212;27.932;2023-02-16T11:36:50;55149.88;;;-146.72;52.61
40994;BME280;26722;43.212;27.932;2023-02-16T11:39:27;55162.53;;;-146.72;52.50
40994;BME280;26722;43.212;27.932;2023-02-16T11:41:57;55170.97;;;-146.72;52.78
40994;BME280;26722;43.212;27.932;2023-02-16T11:44:37;55166.75;;;-146.72;52.34
40994;BME280;26722;43.212;27.932;2023-02-16T11:47:06;55160.44;;;-146.72;52.12
40994;BME280;26722;43.212;27.932;2023-02-16T11:49:39;55132.97;;;-146.72;52.33
40994;BME280;26722;43.212;27.932;2023-02-16T11:52:26;55158.31;;;-146.72;52.09
40994;BME280;26722;43.212;27.932;2023-02-16T11:54:58;55154.09;;;-146.72;50.05
40994;BME280;26722;43.212;27.932;2023-02-16T11:57:42;55149.88;;;-146.72;51.84
40994;BME280;26722;43.212;27.932;2023-02-16T12:00:16;55162.53;;;-146.72;52.70
40994;BME280;26722;43.212;27.932;2023-02-16T12:03:05;55151.97;;;-146.72;54.50
40994;BME280;26722;43.212;27.932;2023-02-16T12:14:32;55149.88;;;-146.72;59.50
40994;BME280;26722;43.212;27.932;2023-02-16T12:17:05;55154.09;;;-146.72;59.80
40994;BME280;26722;43.212;27.932;2023-02-16T12:19:55;55141.44;;;-146.72;59.08
40994;BME280;26722;43.212;27.932;2023-02-16T12:22:46;55173.09;;;-146.72;59.12
40994;BME280;26722;43.212;27.932;2023-02-16T12:25:24;55158.31;;;-146.72;58.86
40994;BME280;26722;43.212;27.932;2023-02-16T12:28:04;55160.44;;;-146.72;58.91
40994;BME280;26722;43.212;27.932;2023-02-16T12:30:58;55145.66;;;-146.72;59.80
40994;BME280;26722;43.212;27.932;2023-02-16T12:36:01;55149.88;;;-146.72;60.65
40994;BME280;26722;43.212;27.932;2023-02-16T12:41:44;55145.66;;;-146.72;61.22
40994;BME280;26722;43.212;27.932;2023-02-16T12:44:20;55175.22;;;-146.72;61.51
40994;BME280;26722;43.212;27.932;2023-02-16T12:46:57;55154.09;;;-146.72;61.90
40994;BME280;26722;43.212;27.932;2023-02-16T12:49:27;55175.22;;;-146.72;62.25
40994;BME280;26722;43.212;27.932;2023-02-16T12:52:06;55187.88;;;-146.72;61.85
40994;BME280;26722;43.212;27.932;2023-02-16T12:54:42;55179.44;;;-146.72;61.90
40994;BME280;26722;43.212;27.932;2023-02-16T12:57:12;55162.53;;;-146.72;61.90
40994;BME280;26722;43.212;27.932;2023-02-16T13:00:04;55158.31;;;-146.72;61.41
40994;BME280;26722;43.212;27.932;2023-02-16T13:02:43;55158.31;;;-146.72;61.13
40994;BME280;26722;43.212;27.932;2023-02-16T13:05:21;55158.31;;;-146.72;61.22
40994;BME280;26722;43.212;27.932;2023-02-16T13:07:51;55173.09;;;-146.72;61.91
40994;BME280;26722;43.212;27.932;2023-02-16T13:11:02;55170.97;;;-146.72;62.22
40994;BME280;26722;43.212;27.932;2023-02-16T13:13:31;55170.97;;;-146.72;62.19
40994;BME280;26722;43.212;27.932;2023-02-16T13:16:10;55173.09;;;-146.72;62.46
40994;BME280;26722;43.212;27.932;2023-02-16T13:18:41;55175.22;;;-146.72;62.08
40994;BME280;26722;43.212;27.932;2023-02-16T13:37:29;55192.09;;;-146.72;62.76
40994;BME280;26722;43.212;27.932;2023-02-16T13:43:40;55166.75;;;-146.72;62.28
40994;BME280;26722;43.212;27.932;2023-02-16T13:46:02;55179.44;;;-146.72;61.75
40994;BME280;26722;43.212;27.932;2023-02-16T13:48:37;55160.44;;;-146.72;61.83
40994;BME280;26722;43.212;27.932;2023-02-16T13:51:09;55181.53;;;-146.72;61.75
40994;BME280;26722;43.212;27.932;2023-02-16T13:53:38;55179.44;;;-146.72;61.53
40994;BME280;26722;43.212;27.932;2023-02-16T13:58:37;55160.44;;;-146.72;60.86
40994;BME280;26722;43.212;27.932;2023-02-16T14:01:37;55164.66;;;-146.72;60.21
40994;BME280;26722;43.212;27.932;2023-02-16T14:04:59;55156.22;;;-146.72;59.68
40994;BME280;26722;43.212;27.932;2023-02-16T14:07:18;55160.44;;;-146.72;58.84
40994;BME280;26722;43.212;27.932;2023-02-16T14:14:54;55175.22;;;-146.72;57.64
40994;BME280;26722;43.212;27.932;2023-02-16T14:24:58;55200.53;;;-146.72;56.01
40994;BME280;26722;43.212;27.932;2023-02-16T14:27:47;55170.97;;;-146.72;56.08
40994;BME280;26722;43.212;27.932;2023-02-16T14:30:35;55200.53;;;-146.72;56.44
40994;BME280;26722;43.212;27.932;2023-02-16T14:35:43;55200.53;;;-146.72;57.53
40994;BME280;26722;43.212;27.932;2023-02-16T14:38:16;55194.22;;;-146.72;58.25
40994;BME280;26722;43.212;27.932;2023-02-16T14:40:59;55187.88;;;-146.72;58.00
40994;BME280;26722;43.212;27.932;2023-02-16T14:43:43;55175.22;;;-146.72;57.45
40994;BME280;26722;43.212;27.932;2023-02-16T14:55:12;55175.22;;;-146.72;57.79
40994;BME280;26722;43.212;27.932;2023-02-16T15:03:00;55183.66;;;-146.72;57.48
40994;BME280;26722;43.212;27.932;2023-02-16T15:05:29;55170.97;;;-146.72;57.43
40994;BME280;26722;43.212;27.932;2023-02-16T15:08:21;55164.66;;;-146.72;57.17
40994;BME280;26722;43.212;27.932;2023-02-16T15:10:49;55162.53;;;-146.72;57.66